This is the latest recevied weather packets stored in our database for station/object WMKL. If no packets are shown the sender has not sent any weather packets the latest 10 day(s).
| Time | Temp. | Humidity | Pressure | Rain* | Wind** | Luminosity | Snow |
|---|---|---|---|---|---|---|---|
| 1777803044 | 30.56° C | 70% | 1006 hPa | - | - | - | - |
| 1777799444 | 30.56° C | 74% | 1005 hPa | - | - | - | - |
| 1777795863 | 30.56° C | 70% | 1006 hPa | - | - | - | - |
| 1777792245 | 27.78° C | 88% | 1007 hPa | - | - | - | - |
| 1777788644 | 26.67° C | 88% | 1009 hPa | - | - | - | - |
| 1777785044 | 31.67° C | 70% | 1010 hPa | - | - | - | - |
| 1777781462 | 30.56° C | 70% | 1010 hPa | - | - | - | - |
| 1777777845 | 30.56° C | 66% | 1010 hPa | - | - | - | - |
| 1777774248 | 30° C | 70% | 1010 hPa | - | - | - | - |
| 1777767062 | 26.67° C | 88% | 1009 hPa | - | - | - | - |
| 1777763445 | 25.56° C | 94% | 1008 hPa | - | - | - | - |
| 1777759843 | 25.56° C | 94% | 1008 hPa | - | - | - | - |
| 1777756243 | 25.56° C | 94% | 1007 hPa | - | - | - | - |
| 1777752643 | 25.56° C | 94% | 1008 hPa | - | - | - | - |
| 1777749066 | 25.56° C | 94% | 1008 hPa | - | - | - | - |
| 1777745443 | 26.67° C | 88% | 1010 hPa | - | - | - | - |
| 1777741842 | 25.56° C | 94% | 1010 hPa | - | - | - | - |
| 1777740643 | 26.67° C | 88% | 1010 hPa | - | - | - | - |
| 1777740057 | 25° C | 92% | 1011.2 hPa | - | - | - | - |
| 1777738242 | 26.67° C | 88% | 1010 hPa | - | - | - | - |
| 1777734642 | 26.67° C | 94% | 1010 hPa | - | - | - | - |
| 1777731063 | 26.67° C | 94% | 1008 hPa | - | - | - | - |
| 1777727442 | 26.67° C | 88% | 1008 hPa | - | - | - | - |
| 1777723847 | 27.78° C | 88% | 1007 hPa | - | - | - | - |
| 1777720244 | 30° C | 79% | 1007 hPa | - | - | - | - |
* Rain since midnight (hover to see other rain measurements)
** Current wind speed in m/s (hover to see current wind gust speed)